Westlake Village, CA (91361)

10:42 AM PDT on May 29, 2015 (GMT -0700)
Westlake Village | | Change Station
CLOSE
Current Station
Personal Weather Station
Location: Thousand Oaks, CA
Elevation: 925 ft
Nearby Weather Stations

Elev 925 ft 34.14 °N, 118.85 °W | Updated 2 minutes ago

Partly Cloudy
Partly Cloudy
76.6 °F
Feels Like 78 °F
N
0.0
Wind Variable Wind from North
Gusts 0.0 mph

Today
High -- | Low -- °F
--% Chance of Precip.
Yesterday
High -- | Low -- °F
Precip. -- in
5:46 AM 8:00 PM
Waxing Gibbous, 85% visible
Pressure 29.96 in
Visibility 8.0 miles
Clouds Scattered Clouds 1300 ft
Heat Index 78 °F
Dew Point 59 °F
Humidity 55%
Rainfall 0.00 in
Snow Depth Not available.
UV 6.4 out of 12
Pollen 4.00 out of 12
Air Quality Not available.
Flu Activity Sporadic
METAR KCMA 291721Z 23006KT 8SM SCT013 19/13 A2996 RMK AO2 T01890128

More Conditions Fewer Conditions

Pressure 29.96 in
Visibility 8.0 miles
Clouds Scattered Clouds 1300 ft
Heat Index 78 °F
Dew Point 59 °F
Humidity 55%
Rainfall 0.00 in
Snow Depth Not available.
UV 6.4 out of 12
Pollen 4.00 out of 12
Air Quality Not available.
Flu Activity Sporadic
METAR KCMA 291721Z 23006KT 8SM SCT013 19/13 A2996 RMK AO2 T01890128

More Conditions Fewer Conditions

10-Day Weather Forecast

Almanac

Astronomy

May. 29, 2015 Rise Set
Actual Time
Civil Twilight
Nautical Twilight
Astronomical Twilight
Moon
Length of Visible Light
Length of Day
Tomorrow will be .
, % of the Moon is Illuminated

Today's Extremes

State Highs State Lows

Community

WunderPhotos

Upload Photos

1,825,306 photos uploaded!

WunderBlogs® & News

Nearby

Air Quality

  Air Quality AQ Index Pollutant
Not available.

Snow Depth

Station Depth Elevation

Earthquake Activity

City Distance Mag. Time & Date
Minimum magnitude displayed is 2.5.

Coastal Water Temperatures

Place Temperature

Stations

Nearby Weather Stations

Station Location Temp. Windchill Dew Point Humidity Wind Precip. Elev Updated Type